createdAt,value
2023-04-15T00:02:01.018Z,14.71
2023-04-15T00:04:29.500Z,14.59
2023-04-15T00:06:59.224Z,14.39
2023-04-15T00:09:27.352Z,14.48
2023-04-15T00:11:55.309Z,14.51
2023-04-15T00:14:23.293Z,14.35
2023-04-15T00:16:56.271Z,14.49
2023-04-15T00:19:24.753Z,14.48
2023-04-15T00:21:52.701Z,14.33
2023-04-15T00:24:22.137Z,14.41
2023-04-15T00:26:50.229Z,14.52
2023-04-15T00:29:18.393Z,14.38
2023-04-15T00:31:46.470Z,14.21
2023-04-15T00:34:15.030Z,14.45
2023-04-15T00:36:44.750Z,14.48
2023-04-15T00:39:13.474Z,14.54
2023-04-15T00:41:45.707Z,14.48
2023-04-15T00:44:14.439Z,14.26
2023-04-15T00:46:44.218Z,14.21
2023-04-15T00:49:13.159Z,14.34
2023-04-15T00:51:41.552Z,14.21
2023-04-15T00:54:09.718Z,13.93
2023-04-15T00:56:39.111Z,14.14
2023-04-15T00:59:09.159Z,14.23
2023-04-15T01:01:38.701Z,14.33
2023-04-15T01:04:07.060Z,14.30
2023-04-15T01:06:35.916Z,14.19
2023-04-15T01:09:04.237Z,14.28
2023-04-15T01:11:34.365Z,14.25
2023-04-15T01:14:02.920Z,14.22
2023-04-15T01:16:32.793Z,14.07
2023-04-15T01:19:05.009Z,14.12
2023-04-15T01:21:33.494Z,14.02
2023-04-15T01:24:02.736Z,14.00
2023-04-15T01:26:32.491Z,14.12
2023-04-15T01:29:00.722Z,13.98
2023-04-15T01:31:29.643Z,14.08
2023-04-15T01:33:59.736Z,14.10
2023-04-15T01:36:28.066Z,14.12
2023-04-15T01:38:57.226Z,14.02
2023-04-15T01:41:26.924Z,14.00
2023-04-15T01:43:56.890Z,14.04
2023-04-15T01:46:25.064Z,14.04
2023-04-15T01:48:54.798Z,13.97
2023-04-15T01:51:23.357Z,13.83
2023-04-15T01:53:52.463Z,14.01
2023-04-15T01:56:20.632Z,13.97
2023-04-15T01:58:49.070Z,14.05
2023-04-15T02:01:19.824Z,14.13
2023-04-15T02:03:48.722Z,14.12
2023-04-15T02:06:16.947Z,14.02
2023-04-15T02:08:45.284Z,13.98
2023-04-15T02:11:13.367Z,14.06
2023-04-15T02:13:41.790Z,13.94
2023-04-15T02:16:18.874Z,14.00
2023-04-15T02:18:48.072Z,14.01
2023-04-15T02:21:16.124Z,13.87
2023-04-15T02:23:45.014Z,13.95
2023-04-15T02:26:14.883Z,13.93
2023-04-15T02:28:42.850Z,13.93
2023-04-15T02:31:10.969Z,13.88
2023-04-15T02:33:40.347Z,13.69
2023-04-15T02:36:09.608Z,13.72
2023-04-15T02:38:38.294Z,13.67
2023-04-15T02:41:06.728Z,13.60
2023-04-15T02:43:36.553Z,13.66
2023-04-15T02:46:05.014Z,13.63
2023-04-15T02:48:33.581Z,13.68
2023-04-15T02:51:16.815Z,13.65
2023-04-15T02:53:44.894Z,13.59
2023-04-15T02:56:15.324Z,13.64
2023-04-15T02:58:44.823Z,13.64
2023-04-15T03:05:15.941Z,13.55
2023-04-15T03:07:51.384Z,13.54
2023-04-15T03:10:20.320Z,13.44
2023-04-15T03:12:48.645Z,13.27
2023-04-15T03:15:19.723Z,13.14
2023-04-15T03:17:51.223Z,13.03
2023-04-15T03:20:19.864Z,13.11
2023-04-15T03:22:49.357Z,13.08
2023-04-15T03:25:19.186Z,13.05
2023-04-15T03:27:47.337Z,13.05
2023-04-15T03:30:15.488Z,13.04
2023-04-15T03:32:43.632Z,13.00
2023-04-15T03:35:12.123Z,12.94
2023-04-15T03:37:40.290Z,12.96
2023-04-15T03:40:09.921Z,12.95
2023-04-15T03:42:39.360Z,12.96
2023-04-15T03:45:08.804Z,12.88
2023-04-15T03:47:36.925Z,12.92
2023-04-15T03:50:05.340Z,12.91
2023-04-15T03:52:33.361Z,12.89
2023-04-15T03:55:01.741Z,12.87
2023-04-15T03:57:29.843Z,12.84
2023-04-15T03:59:59.206Z,12.83
2023-04-15T04:02:28.466Z,12.77
2023-04-15T04:04:56.561Z,12.81
2023-04-15T04:07:25.445Z,12.71
2023-04-15T04:09:53.583Z,12.74
2023-04-15T04:12:21.600Z,12.75
2023-04-15T04:14:49.733Z,12.73
2023-04-15T04:17:19.102Z,12.75
2023-04-15T04:19:47.240Z,12.80
2023-04-15T04:22:15.245Z,12.81
2023-04-15T04:24:43.425Z,12.84
2023-04-15T04:27:11.460Z,12.57
2023-04-15T04:29:39.521Z,12.64
2023-04-15T04:32:08.064Z,12.59
2023-04-15T04:34:37.567Z,12.52
2023-04-15T04:37:05.528Z,12.19
2023-04-15T04:39:33.880Z,11.43
2023-04-15T04:42:02.375Z,11.45
2023-04-15T04:44:30.505Z,11.33
2023-04-15T04:46:58.500Z,11.98
2023-04-15T04:49:26.521Z,12.42
2023-04-15T04:51:55.995Z,12.57
2023-04-15T04:54:24.171Z,12.63
2023-04-15T04:56:52.312Z,12.42
2023-04-15T04:59:20.460Z,12.43
2023-04-15T05:01:48.579Z,12.70
2023-04-15T05:04:16.708Z,12.60
2023-04-15T05:06:44.826Z,12.49
2023-04-15T05:09:14.334Z,12.39
2023-04-15T05:11:42.321Z,12.41
2023-04-15T05:14:10.325Z,12.41
2023-04-15T05:16:38.407Z,12.89
2023-04-15T05:19:06.421Z,13.06
2023-04-15T05:21:34.602Z,13.21
2023-04-15T05:24:02.668Z,13.32
2023-04-15T05:26:32.163Z,13.46
2023-04-15T05:29:00.456Z,13.56
2023-04-15T05:31:28.661Z,13.61
2023-04-15T05:33:56.808Z,13.54
2023-04-15T05:36:24.893Z,13.62
2023-04-15T05:38:53.439Z,13.82
2023-04-15T05:41:21.689Z,13.78
2023-04-15T05:43:51.263Z,14.02
2023-04-15T05:46:19.498Z,14.13
2023-04-15T05:48:47.488Z,14.03
2023-04-15T05:51:16.159Z,14.02
2023-04-15T05:53:46.019Z,14.10
2023-04-15T05:56:14.109Z,14.26
2023-04-15T05:58:42.353Z,14.40
2023-04-15T06:01:11.838Z,14.50
2023-04-15T06:03:40.181Z,14.43
2023-04-15T06:06:08.900Z,14.46
2023-04-15T06:08:37.291Z,14.57
2023-04-15T06:11:06.042Z,14.78
2023-04-15T06:13:34.992Z,14.84
2023-04-15T06:16:04.175Z,14.69
2023-04-15T06:18:33.567Z,14.71
2023-04-15T06:21:03.282Z,14.69
2023-04-15T06:23:31.737Z,14.63
2023-04-15T06:25:59.718Z,14.54
2023-04-15T06:28:27.841Z,14.54
2023-04-15T06:30:56.329Z,14.61
2023-04-15T06:33:24.530Z,14.76
2023-04-15T06:35:53.942Z,14.73
2023-04-15T06:38:22.143Z,14.62
2023-04-15T06:40:50.171Z,14.90
2023-04-15T06:43:18.555Z,14.89
2023-04-15T06:45:46.530Z,15.01
2023-04-15T06:48:14.908Z,14.96
2023-04-15T06:50:42.947Z,15.01
2023-04-15T06:53:12.479Z,15.14
2023-04-15T06:55:40.551Z,15.05
2023-04-15T06:58:08.863Z,15.20
2023-04-15T07:00:39.079Z,15.19
2023-04-15T07:03:10.231Z,15.24
2023-04-15T07:05:38.497Z,15.35
2023-04-15T07:08:06.732Z,14.99
2023-04-15T07:10:36.424Z,15.23
2023-04-15T07:13:05.695Z,15.32
2023-04-15T07:15:33.954Z,15.47
2023-04-15T07:18:01.993Z,15.58
2023-04-15T07:20:30.045Z,15.33
2023-04-15T07:22:58.556Z,15.54
2023-04-15T07:25:26.587Z,15.72
2023-04-15T07:27:56.370Z,15.63
2023-04-15T07:30:24.606Z,15.81
2023-04-15T07:32:52.822Z,15.74
2023-04-15T07:35:21.637Z,15.91
2023-04-15T07:37:49.736Z,15.96
2023-04-15T07:40:17.983Z,16.09
2023-04-15T07:42:46.229Z,16.42
2023-04-15T07:45:15.717Z,16.55
2023-04-15T07:47:43.911Z,16.53
2023-04-15T07:50:12.411Z,16.84
2023-04-15T07:52:40.601Z,16.79
2023-04-15T07:55:09.700Z,16.89
2023-04-15T07:57:38.275Z,17.11
2023-04-15T08:00:07.815Z,17.52
2023-04-15T08:02:43.897Z,17.01
2023-04-15T08:05:12.205Z,17.47
2023-04-15T08:07:40.302Z,17.40
2023-04-15T08:10:09.545Z,17.61
2023-04-15T08:12:37.962Z,17.55
2023-04-15T08:15:08.316Z,17.89
2023-04-15T08:17:36.603Z,18.05
2023-04-15T08:20:07.318Z,18.27
2023-04-15T08:22:35.673Z,18.18
2023-04-15T08:25:03.695Z,17.67
2023-04-15T08:27:31.814Z,18.10
2023-04-15T08:30:02.146Z,18.24
2023-04-15T08:32:31.729Z,18.26
2023-04-15T08:35:00.765Z,18.45
2023-04-15T08:37:30.439Z,18.42
2023-04-15T08:39:58.583Z,18.42
2023-04-15T08:42:32.605Z,18.29
2023-04-15T08:45:02.106Z,18.59
2023-04-15T08:47:32.982Z,18.53
2023-04-15T08:50:04.587Z,18.42
2023-04-15T08:52:34.398Z,18.45
2023-04-15T08:55:04.972Z,18.76
2023-04-15T08:57:34.262Z,17.57
2023-04-15T09:00:05.872Z,18.67
2023-04-15T09:02:34.357Z,19.06
2023-04-15T09:05:05.046Z,19.09
2023-04-15T09:07:36.848Z,18.93
2023-04-15T09:10:05.517Z,18.55
2023-04-15T09:12:36.308Z,18.93
2023-04-15T09:15:05.172Z,19.35
2023-04-15T09:17:35.117Z,19.17
2023-04-15T09:20:10.541Z,19.57
2023-04-15T09:22:40.807Z,19.86
2023-04-15T09:25:27.384Z,19.82
2023-04-15T09:27:57.593Z,19.65
2023-04-15T09:30:25.791Z,19.88
2023-04-15T09:32:54.797Z,20.13
2023-04-15T09:35:24.022Z,19.81
2023-04-15T09:37:54.385Z,19.63
2023-04-15T09:40:41.181Z,19.84
2023-04-15T09:43:12.962Z,19.46
2023-04-15T09:45:49.246Z,19.59
2023-04-15T09:48:20.950Z,19.70
2023-04-15T09:50:50.524Z,19.84
2023-04-15T09:53:21.612Z,19.83
2023-04-15T09:55:52.135Z,19.37
2023-04-15T09:58:21.146Z,19.30
2023-04-15T10:00:50.499Z,18.79
2023-04-15T10:03:22.114Z,19.08
2023-04-15T10:05:51.840Z,19.53
2023-04-15T10:08:22.836Z,19.39
2023-04-15T10:10:51.927Z,19.55
2023-04-15T10:13:23.760Z,19.65
2023-04-15T10:15:53.741Z,20.08
2023-04-15T10:18:22.789Z,20.37
2023-04-15T10:20:51.861Z,20.53
2023-04-15T10:23:21.887Z,20.47
2023-04-15T10:25:50.768Z,20.70
2023-04-15T10:28:18.956Z,20.78
2023-04-15T10:30:48.012Z,20.72
2023-04-15T10:33:18.057Z,20.64
2023-04-15T10:35:47.715Z,20.75
2023-04-15T10:38:40.870Z,19.49
2023-04-15T10:41:21.622Z,19.62
2023-04-15T10:43:51.909Z,20.08
2023-04-15T10:46:22.464Z,20.79
2023-04-15T10:48:52.648Z,20.57
2023-04-15T10:51:32.294Z,20.84
2023-04-15T10:54:01.864Z,21.25
2023-04-15T10:56:31.506Z,21.06
2023-04-15T10:59:01.500Z,21.29
2023-04-15T11:01:55.033Z,21.34
2023-04-15T11:04:55.103Z,20.42
2023-04-15T11:07:41.142Z,20.16
2023-04-15T11:10:53.014Z,20.68
2023-04-15T11:13:29.483Z,20.60
2023-04-15T11:16:01.608Z,20.99
2023-04-15T11:18:35.408Z,20.82
2023-04-15T11:21:06.200Z,20.67
2023-04-15T11:23:37.320Z,21.03
2023-04-15T11:26:09.933Z,20.69
2023-04-15T11:28:41.500Z,20.81
2023-04-15T11:31:12.054Z,21.17
2023-04-15T11:33:47.307Z,20.88
2023-04-15T11:36:15.753Z,21.36
2023-04-15T11:38:45.939Z,21.29
2023-04-15T11:41:14.132Z,20.82
2023-04-15T11:43:43.973Z,20.39
2023-04-15T11:46:12.218Z,20.17
2023-04-15T11:48:44.204Z,20.81
2023-04-15T11:51:13.282Z,20.47
2023-04-15T11:53:42.983Z,20.56
2023-04-15T11:56:13.560Z,20.81
2023-04-15T11:58:43.514Z,21.20
2023-04-15T12:01:11.945Z,21.38
2023-04-15T12:03:41.522Z,21.73
2023-04-15T12:06:13.405Z,22.17
2023-04-15T12:08:57.559Z,21.65
2023-04-15T12:11:31.472Z,21.40
2023-04-15T12:14:06.241Z,21.32
2023-04-15T12:16:45.713Z,21.48
2023-04-15T12:19:19.446Z,21.16
2023-04-15T12:21:49.572Z,20.49
2023-04-15T12:24:22.238Z,20.88
2023-04-15T12:26:52.624Z,20.71
2023-04-15T12:29:26.298Z,21.16
2023-04-15T12:31:56.350Z,21.30
2023-04-15T12:34:29.889Z,21.86
2023-04-15T12:36:59.062Z,22.13
2023-04-15T12:39:30.478Z,23.02
2023-04-15T12:41:59.496Z,23.74
2023-04-15T12:44:29.416Z,24.03
2023-04-15T12:46:58.339Z,23.94
2023-04-15T12:49:27.114Z,24.20
2023-04-15T12:51:57.034Z,24.05
2023-04-15T12:54:25.292Z,24.27
2023-04-15T12:56:53.427Z,25.09
2023-04-15T12:59:21.729Z,24.68
2023-04-15T13:01:52.656Z,24.22
2023-04-15T13:04:22.091Z,24.24
2023-04-15T13:06:50.526Z,23.21
2023-04-15T13:09:18.797Z,23.12
2023-04-15T13:11:46.876Z,23.41
2023-04-15T13:14:15.130Z,23.30
2023-04-15T13:16:43.248Z,23.05
2023-04-15T13:19:12.779Z,22.61
2023-04-15T13:21:40.801Z,22.24
2023-04-15T13:24:09.875Z,21.98
2023-04-15T13:26:38.071Z,21.80
2023-04-15T13:29:06.838Z,21.73
2023-04-15T13:31:34.992Z,21.53
2023-04-15T13:34:03.396Z,21.54
2023-04-15T13:36:33.331Z,21.83
2023-04-15T13:39:01.710Z,21.71
2023-04-15T13:41:29.669Z,21.92
2023-04-15T13:43:58.524Z,22.40
2023-04-15T13:46:26.854Z,22.48
2023-04-15T13:48:55.060Z,22.83
2023-04-15T13:51:23.175Z,23.52
2023-04-15T13:53:52.601Z,23.65
2023-04-15T13:56:21.660Z,23.85
2023-04-15T13:58:49.913Z,24.26
2023-04-15T14:01:18.078Z,24.11
2023-04-15T14:03:46.548Z,23.96
2023-04-15T14:06:14.831Z,24.25
2023-04-15T14:08:43.668Z,24.34
2023-04-15T14:11:13.302Z,24.80
2023-04-15T14:13:41.370Z,24.93
2023-04-15T14:16:09.439Z,24.27
2023-04-15T14:18:38.456Z,22.65
2023-04-15T14:21:07.479Z,24.00
2023-04-15T14:23:35.596Z,24.53
2023-04-15T14:26:03.663Z,24.26
2023-04-15T14:28:33.253Z,24.34
2023-04-15T14:31:01.373Z,23.82
2023-04-15T14:33:29.469Z,24.25
2023-04-15T14:35:57.537Z,24.02
2023-04-15T14:38:25.680Z,23.26
2023-04-15T14:40:53.679Z,23.09
2023-04-15T14:43:22.110Z,23.12
2023-04-15T14:45:52.072Z,23.32
2023-04-15T14:48:20.232Z,22.67
2023-04-15T14:50:48.367Z,22.15
2023-04-15T14:53:16.694Z,22.47
2023-04-15T14:55:45.247Z,22.07
2023-04-15T14:58:13.361Z,22.50
2023-04-15T15:00:44.445Z,22.64
2023-04-15T15:03:14.992Z,22.24
2023-04-15T15:05:45.225Z,22.27
2023-04-15T15:08:14.456Z,22.23
2023-04-15T15:10:48.572Z,22.10
2023-04-15T15:13:18.502Z,22.67
2023-04-15T15:15:49.348Z,22.34
2023-04-15T15:18:19.908Z,22.74
2023-04-15T15:20:48.344Z,23.32
2023-04-15T15:23:16.549Z,23.23
2023-04-15T15:25:45.220Z,23.39
2023-04-15T15:28:13.372Z,22.91
2023-04-15T15:30:41.555Z,23.12
2023-04-15T15:33:09.804Z,22.88
2023-04-15T15:35:39.377Z,23.30
2023-04-15T15:38:07.471Z,23.16
2023-04-15T15:40:35.551Z,23.04
2023-04-15T15:43:03.631Z,22.82
2023-04-15T15:45:31.811Z,22.64
2023-04-15T15:48:00.343Z,22.36
2023-04-15T15:50:28.563Z,22.54
2023-04-15T15:52:58.729Z,22.62
2023-04-15T15:55:27.341Z,22.90
2023-04-15T15:57:55.436Z,23.11
2023-04-15T16:00:23.847Z,22.96
2023-04-15T16:05:22.832Z,22.65
2023-04-15T16:07:50.972Z,22.55
2023-04-15T16:10:20.424Z,21.80
2023-04-15T16:12:48.561Z,22.14
2023-04-15T16:15:18.087Z,21.81
2023-04-15T16:17:46.192Z,21.74
2023-04-15T16:20:14.296Z,21.36
2023-04-15T16:22:42.477Z,21.05
2023-04-15T16:25:11.042Z,20.91
2023-04-15T16:27:57.255Z,20.76
2023-04-15T16:30:29.003Z,20.32
2023-04-15T16:32:57.795Z,20.45
2023-04-15T16:35:26.220Z,20.56
2023-04-15T16:37:54.289Z,20.13
2023-04-15T16:40:22.412Z,19.00
2023-04-15T16:42:52.313Z,17.50
2023-04-15T16:45:20.468Z,18.05
2023-04-15T16:47:48.744Z,18.17
2023-04-15T16:50:16.816Z,17.39
2023-04-15T16:52:44.886Z,17.55
2023-04-15T16:55:12.948Z,17.71
2023-04-15T16:58:00.416Z,17.54
2023-04-15T17:00:31.282Z,17.12
2023-04-15T17:03:00.050Z,16.74
2023-04-15T17:05:28.395Z,16.95
2023-04-15T17:07:56.701Z,15.40
2023-04-15T17:10:24.880Z,15.78
2023-04-15T17:12:53.261Z,15.26
2023-04-15T17:15:21.583Z,15.12
2023-04-15T17:17:51.176Z,15.39
2023-04-15T17:20:19.475Z,15.50
2023-04-15T17:22:48.999Z,15.53
2023-04-15T17:25:21.162Z,15.37
2023-04-15T17:27:49.300Z,15.29
2023-04-15T17:30:17.430Z,14.77
2023-04-15T17:32:45.543Z,14.93
2023-04-15T17:35:15.126Z,15.21
2023-04-15T17:37:43.365Z,15.04
2023-04-15T17:40:12.455Z,15.08
2023-04-15T17:42:40.826Z,15.13
2023-04-15T17:45:09.833Z,15.16
2023-04-15T17:47:38.016Z,14.94
2023-04-15T17:50:06.940Z,15.04
2023-04-15T17:52:36.484Z,14.79
2023-04-15T17:55:04.711Z,14.00
2023-04-15T17:57:32.942Z,13.81
2023-04-15T18:00:01.028Z,14.60
2023-04-15T18:02:29.416Z,14.71
2023-04-15T18:04:57.884Z,14.83
2023-04-15T18:07:26.489Z,14.79
2023-04-15T18:09:56.550Z,14.77
2023-04-15T18:12:24.649Z,14.78
2023-04-15T18:14:52.772Z,14.71
2023-04-15T18:17:21.347Z,14.57
2023-04-15T18:19:49.403Z,14.56
2023-04-15T18:22:17.575Z,14.61
2023-04-15T18:24:45.692Z,14.60
2023-04-15T18:27:15.369Z,14.62
2023-04-15T18:29:43.937Z,14.59
2023-04-15T18:32:12.083Z,14.56
2023-04-15T18:34:40.160Z,14.36
2023-04-15T18:37:08.687Z,14.33
2023-04-15T18:39:36.714Z,14.20
2023-04-15T18:42:05.028Z,14.02
2023-04-15T18:44:34.381Z,13.98
2023-04-15T18:47:02.719Z,13.86
2023-04-15T18:49:31.533Z,13.87
2023-04-15T18:51:59.629Z,13.86
2023-04-15T18:54:27.785Z,13.77
2023-04-15T18:56:56.608Z,13.86
2023-04-15T18:59:29.582Z,13.96
2023-04-15T19:02:01.357Z,13.92
2023-04-15T19:04:29.965Z,13.89
2023-04-15T19:06:59.066Z,13.75
2023-04-15T19:09:27.472Z,13.65
2023-04-15T19:11:56.939Z,13.65
2023-04-15T19:14:25.134Z,13.54
2023-04-15T19:16:53.156Z,13.49
2023-04-15T19:19:22.694Z,13.61
2023-04-15T19:21:50.961Z,13.58
2023-04-15T19:24:21.593Z,13.51
2023-04-15T19:26:51.170Z,13.46
2023-04-15T19:29:19.448Z,13.36
2023-04-15T19:31:47.482Z,13.40
2023-04-15T19:34:15.711Z,13.45
2023-04-15T19:36:45.176Z,13.44
2023-04-15T19:39:13.666Z,13.43
2023-04-15T19:41:41.887Z,13.36
2023-04-15T19:44:12.807Z,13.30
2023-04-15T19:46:41.120Z,13.29
2023-04-15T19:49:09.192Z,13.19
2023-04-15T19:51:37.494Z,13.12
2023-04-15T19:54:07.090Z,13.03
2023-04-15T19:56:35.449Z,12.88
2023-04-15T19:59:03.789Z,12.87
2023-04-15T20:01:32.175Z,12.85
2023-04-15T20:04:00.616Z,12.82
2023-04-15T20:06:29.031Z,12.81
2023-04-15T20:08:57.050Z,12.78
2023-04-15T20:12:06.171Z,12.75
2023-04-15T20:14:17.716Z,12.73
2023-04-15T20:16:45.821Z,12.72
2023-04-15T20:19:13.982Z,12.71
2023-04-15T20:21:42.051Z,12.69
2023-04-15T20:24:10.887Z,12.66
2023-04-15T20:26:40.533Z,12.62
2023-04-15T20:29:08.739Z,12.62
2023-04-15T20:31:36.917Z,12.57
2023-04-15T20:34:05.087Z,12.56
2023-04-15T20:36:33.364Z,12.51
2023-04-15T20:39:01.632Z,12.51
2023-04-15T20:41:29.727Z,12.30
2023-04-15T20:43:59.220Z,12.25
2023-04-15T20:46:27.714Z,12.19
2023-04-15T20:48:56.795Z,12.13
2023-04-15T20:51:24.868Z,12.22
2023-04-15T20:53:53.145Z,12.22
2023-04-15T20:56:21.237Z,12.19
2023-04-15T20:58:49.285Z,12.12
2023-04-15T21:01:18.717Z,12.12
2023-04-15T21:03:47.075Z,12.15
2023-04-15T21:06:15.542Z,12.10
2023-04-15T21:08:43.763Z,11.97
2023-04-15T21:11:11.765Z,11.89
2023-04-15T21:13:39.958Z,11.76
2023-04-15T21:16:08.011Z,11.80
2023-04-15T21:18:37.435Z,11.88
2023-04-15T21:21:06.105Z,11.88
2023-04-15T21:23:35.975Z,11.93
2023-04-15T21:26:04.165Z,11.97
2023-04-15T21:28:32.857Z,11.90
2023-04-15T21:31:01.238Z,11.92
2023-04-15T21:33:29.264Z,11.92
2023-04-15T21:35:58.865Z,11.93
2023-04-15T21:38:27.059Z,11.92
2023-04-15T21:40:55.281Z,11.86
2023-04-15T21:43:25.702Z,11.82
2023-04-15T21:46:22.868Z,11.70
2023-04-15T21:48:42.492Z,11.80
2023-04-15T21:51:11.946Z,11.76
2023-04-15T21:53:40.507Z,11.31
2023-04-15T21:56:09.218Z,11.32
2023-04-15T21:58:37.714Z,11.33
2023-04-15T22:01:06.442Z,11.48
2023-04-15T22:03:36.262Z,11.37
2023-04-15T22:06:05.134Z,10.81
2023-04-15T22:08:44.513Z,11.09
2023-04-15T22:11:23.073Z,11.31
2023-04-15T22:13:51.508Z,10.30
2023-04-15T22:16:19.537Z,9.23
2023-04-15T22:18:47.633Z,9.30
2023-04-15T22:21:15.816Z,8.86
2023-04-15T22:23:47.091Z,8.46
2023-04-15T22:26:15.159Z,8.28
2023-04-15T22:28:43.231Z,8.19
2023-04-15T22:31:11.516Z,8.21
2023-04-15T22:33:39.900Z,7.98
2023-04-15T22:36:07.962Z,8.30
2023-04-15T22:38:36.174Z,8.41
2023-04-15T22:41:05.668Z,8.77
2023-04-15T22:43:33.725Z,8.94
2023-04-15T22:46:01.866Z,9.09
2023-04-15T22:48:30.071Z,9.27
2023-04-15T22:50:58.322Z,9.30
2023-04-15T22:53:26.517Z,9.88
2023-04-15T22:55:54.573Z,10.02
2023-04-15T22:58:24.293Z,9.69
2023-04-15T23:00:52.378Z,8.66
2023-04-15T23:03:20.441Z,9.10
2023-04-15T23:05:49.116Z,8.37
2023-04-15T23:08:17.120Z,8.21
2023-04-15T23:10:45.174Z,8.46
2023-04-15T23:13:13.190Z,8.53
2023-04-15T23:15:42.777Z,8.47
2023-04-15T23:18:10.854Z,8.63
2023-04-15T23:20:39.022Z,8.52
2023-04-15T23:23:07.074Z,8.97
2023-04-15T23:25:35.166Z,8.86
2023-04-15T23:28:03.328Z,8.67
2023-04-15T23:30:31.607Z,9.10
2023-04-15T23:33:01.141Z,9.36
2023-04-15T23:35:29.344Z,9.57
2023-04-15T23:37:57.378Z,9.60
2023-04-15T23:40:25.522Z,9.69
2023-04-15T23:42:53.587Z,9.80
2023-04-15T23:45:21.648Z,9.95
2023-04-15T23:47:49.699Z,9.86
2023-04-15T23:50:19.294Z,9.79
2023-04-15T23:52:47.720Z,10.11
2023-04-15T23:55:16.002Z,10.13
2023-04-15T23:57:44.017Z,10.19
